Latest Weather Observations for Cessnock Airport

IDN60801

Issued at 9:42 am EST Monday 23 April 2018 (issued every 10 minutes, with the page automatically refreshed every 10 minutes)

About weather observations | Map of weather stations | Latest weather observations for NSW | Other Formats
Station Details ID: 061260 Name: CESSNOCK AIRPORT AWS Lat: -32.79 Lon: 151.34 Height: 61.0 m
Data from the previous 72 hours. | See also: Recent months at Cessnock Airport
Date/Time
EST
Temp
°C
App
Temp
°C
Dew
Point
°C
Rel
Hum
%
Delta-T
°C
Wind Press
QNH
hPa
Press
MSL
hPa
Rain since
9am
mm
Dir  Spd
km/h
Gust
km/h
Spd
kts
Gust
kts
23/09:30am 18.5 19.1 15.4 82 1.8 WNW 6 9 3 5 1020.5 1020.4 0.0
23/09:00am 16.9 17.7 15.9 94 0.6 NNE 6 9 3 5 1020.7 1020.6 0.0
23/08:30am 15.0 15.2 14.7 98 0.2 N 7 11 4 6 1020.7 1020.6 0.0
23/08:00am 13.7 14.8 13.4 98 0.2 CALM 0 6 0 3 1020.7 1020.6 0.0
23/07:30am 11.7 12.1 11.4 98 0.2 CALM 0 0 0 0 1020.6 1020.5 0.0
23/07:00am 10.0 9.9 9.5 97 0.2 CALM 0 0 0 0 1020.1 1020.0 0.0
23/06:30am 10.1 10.0 9.6 97 0.3 CALM 0 0 0 0 1019.7 1019.6 0.0
23/06:00am 10.1 10.0 9.6 97 0.2 CALM 0 0 0 0 1019.6 1019.5 0.0
23/05:30am 10.3 10.3 9.8 97 0.3 CALM 0 0 0 0 1019.4 1019.3 0.0
23/05:00am 10.3 10.3 9.8 97 0.3 CALM 0 0 0 0 1019.6 1019.5 0.0
23/04:30am 11.0 10.8 10.5 97 0.3 NNE 2 7 1 4 1019.6 1019.5 0.0
23/04:00am 10.2 10.2 9.7 97 0.3 CALM 0 0 0 0 1019.4 1019.3 0.0
23/03:30am 10.6 10.7 10.1 97 0.3 CALM 0 0 0 0 1019.3 1019.2 0.0
23/03:00am 10.9 11.1 10.4 97 0.3 CALM 0 0 0 0 1019.6 1019.5 0.0
23/02:30am 10.6 10.7 10.0 96 0.3 CALM 0 0 0 0 1019.9 1019.8 0.0
23/02:00am 10.8 10.9 10.2 96 0.3 CALM 0 0 0 0 1019.9 1019.8 0.0
23/01:30am 11.5 11.8 10.9 96 0.3 CALM 0 0 0 0 1020.1 1020.0 0.0
23/01:00am 11.8 12.2 11.2 96 0.3 CALM 0 0 0 0 1020.4 1020.3 0.0
23/12:30am 12.4 11.3 11.8 96 0.3 WSW 9 11 5 6 1020.6 1020.5 0.0
23/12:00am 12.9 13.6 12.3 96 0.3 CALM 0 0 0 0 1020.8 1020.7 0.0
 
Date/Time
EST
Temp
°C
App
Temp
°C
Dew
Point
°C
Rel
Hum
%
Delta-T
°C
Wind Press
QNH
hPa
Press
MSL
hPa
Rain since
9am
mm
Dir  Spd
km/h
Gust
km/h
Spd
kts
Gust
kts
22/11:30pm 13.0 13.4 12.4 96 0.3 SSW 2 6 1 3 1021.0 1020.9 0.0
22/11:00pm 13.2 12.3 12.6 96 0.3 WSW 9 11 5 6 1020.9 1020.8 0.0
22/10:30pm 12.9 12.2 12.1 95 0.4 SW 7 9 4 5 1021.1 1021.0 0.0
22/10:00pm 13.7 14.6 12.9 95 0.4 CALM 0 0 0 0 1021.2 1021.1 0.0
22/09:30pm 14.1 15.1 13.1 94 0.6 CALM 0 0 0 0 1021.1 1021.0 0.0
22/09:00pm 14.2 15.2 13.1 93 0.6 CALM 0 0 0 0 1021.1 1021.0 0.0
22/08:30pm 15.2 16.3 13.6 90 0.9 CALM 0 0 0 0 1020.9 1020.8 0.0
22/08:00pm 15.1 14.8 13.3 89 1.0 SW 7 9 4 5 1020.6 1020.5 0.0
22/07:30pm 15.9 15.6 13.4 85 1.4 SW 7 9 4 5 1020.7 1020.6 0.0
22/07:00pm 17.6 17.6 14.3 81 1.9 SSW 7 9 4 5 1020.8 1020.7 0.0
22/06:30pm 18.3 18.1 14.6 79 2.1 S 9 11 5 6 1020.8 1020.7 0.0
22/06:00pm 19.4 19.4 15.1 76 2.5 SE 9 11 5 6 1020.7 1020.6 0.0
22/05:30pm 19.7 19.1 14.5 72 3.0 SSE 11 17 6 9 1020.5 1020.4 0.0
22/05:00pm 21.1 20.4 14.3 65 4.0 SE 11 19 6 10 1020.3 1020.2 0.0
22/04:30pm 21.8 20.2 13.9 61 4.6 ESE 15 20 8 11 1020.2 1020.1 0.0
22/04:00pm 22.5 21.1 14.4 60 4.8 SE 15 22 8 12 1020.1 1020.0 0.0
22/03:30pm 21.9 19.9 14.0 61 4.6 SE 17 24 9 13 1020.1 1020.0 0.0
22/03:00pm 22.7 20.3 14.3 59 4.9 SE 20 28 11 15 1020.2 1020.1 0.0
22/02:30pm 22.7 20.6 14.8 61 4.7 SE 19 26 10 14 1020.0 1019.9 0.0
22/02:00pm 22.2 20.0 14.3 61 4.6 SE 19 24 10 13 1019.9 1019.8 0.0
22/01:30pm 23.0 20.6 14.3 58 5.1 SE 20 24 11 13 1020.0 1019.9 0.0
22/01:00pm 22.8 21.2 15.1 62 4.6 SSE 17 24 9 13 1020.3 1020.2 0.0
22/12:30pm 22.1 20.1 14.0 60 4.7 SSE 17 26 9 14 1020.8 1020.7 0.0
22/12:00pm 22.0 20.8 14.1 61 4.6 SE 13 24 7 13 1021.2 1021.1 0.0
22/11:30am 21.7 20.2 14.1 62 4.4 SE 15 20 8 11 1021.6 1021.5 0.0
22/11:00am 21.7 20.5 14.1 62 4.4 SSE 13 20 7 11 1021.9 1021.8 0.0
22/10:30am 21.3 19.8 14.2 64 4.1 SE 15 20 8 11 1022.2 1022.1 0.0
22/10:00am 21.1 19.9 14.0 64 4.1 SSW 13 19 7 10 1022.3 1022.2 0.0
22/09:30am 20.9 20.0 14.8 68 3.6 S 13 17 7 9 1022.7 1022.5 0.0
22/09:00am 19.6 18.5 14.2 71 3.1 SSW 13 19 7 10 1022.9 1022.7 0.4
22/08:30am 17.6 19.3 15.2 86 1.4 CALM 0 0 0 0 1022.9 1022.7 0.4
22/08:00am 15.3 16.6 14.0 92 0.7 CALM 0 0 0 0 1022.9 1022.7 0.4
22/07:30am 13.4 14.3 12.9 97 0.3 CALM 0 0 0 0 1022.8 1022.6 0.4
22/07:00am 11.2 11.4 10.7 97 0.3 CALM 0 2 0 1 1022.3 1022.2 0.4
22/06:30am 10.3 10.3 9.8 97 0.3 CALM 0 2 0 1 1022.0 1021.9 0.4
22/06:00am 9.9 8.5 9.4 97 0.2 WSW 7 9 4 5 1021.8 1021.7 0.4
22/05:30am 10.8 10.9 10.2 96 0.3 CALM 0 0 0 0 1021.6 1021.5 0.4
22/05:00am 10.2 9.0 9.4 95 0.4 SW 6 9 3 5 1021.6 1021.5 0.4
22/04:30am 11.9 12.3 11.3 96 0.3 CALM 0 0 0 0 1021.6 1021.5 0.4
22/04:00am 11.8 12.2 11.2 96 0.3 CALM 0 0 0 0 1021.4 1021.3 0.4
22/03:30am 12.8 13.5 12.2 96 0.3 CALM 0 0 0 0 1021.3 1021.2 0.4
22/03:00am 13.3 14.1 12.7 96 0.3 CALM 0 0 0 0 1021.4 1021.3 0.4
22/02:30am 12.9 13.6 12.3 96 0.3 CALM 0 0 0 0 1021.6 1021.5 0.4
22/02:00am 12.6 12.1 12.0 96 0.3 SW 6 7 3 4 1021.6 1021.5 0.4
22/01:30am 13.0 13.7 12.2 95 0.4 CALM 0 0 0 0 1021.8 1021.7 0.4
22/01:00am 13.9 14.9 13.1 95 0.4 CALM 0 0 0 0 1021.8 1021.7 0.4
22/12:30am 14.5 15.7 13.7 95 0.4 CALM 0 0 0 0 1022.0 1021.9 0.4
22/12:00am 14.4 15.5 13.4 94 0.6 CALM 0 0 0 0 1022.1 1022.0 0.4
 
Date/Time
EST
Temp
°C
App
Temp
°C
Dew
Point
°C
Rel
Hum
%
Delta-T
°C
Wind Press
QNH
hPa
Press
MSL
hPa
Rain since
9am
mm
Dir  Spd
km/h
Gust
km/h
Spd
kts
Gust
kts
21/11:30pm 15.6 17.1 14.6 94 0.6 CALM 0 0 0 0 1022.2 1022.1 0.4
21/11:00pm 15.7 16.0 14.4 92 0.7 WSW 6 7 3 4 1022.3 1022.2 0.4
21/10:30pm 16.1 17.6 14.6 91 0.9 CALM 0 0 0 0 1022.4 1022.3 0.4
21/10:00pm 16.2 16.7 14.9 92 0.7 WSW 6 7 3 4 1022.6 1022.4 0.4
21/09:30pm 16.0 17.5 14.7 92 0.7 CALM 0 0 0 0 1022.7 1022.5 0.4
21/09:00pm 15.8 16.6 14.7 93 0.6 W 4 6 2 3 1022.7 1022.5 0.4
21/08:30pm 16.0 17.4 14.5 91 0.9 CALM 0 0 0 0 1022.3 1022.2 0.4
21/08:00pm 15.9 16.1 14.3 90 0.9 WSW 6 7 3 4 1022.1 1022.0 0.4
21/07:30pm 16.2 16.5 14.4 89 1.0 SW 6 7 3 4 1021.9 1021.8 0.4
21/07:00pm 16.4 16.2 13.7 84 1.5 S 7 9 4 5 1021.6 1021.5 0.4
21/06:30pm 18.0 17.8 14.7 81 1.9 SE 9 9 5 5 1021.4 1021.3 0.4
21/06:00pm 18.4 18.7 14.5 78 2.3 ESE 6 9 3 5 1021.0 1020.9 0.4
21/05:30pm 19.5 18.9 14.5 73 2.9 SE 11 15 6 8 1020.8 1020.7 0.4
21/05:00pm 20.4 19.4 14.5 69 3.4 SE 13 19 7 10 1020.5 1020.4 0.4
21/04:30pm 20.8 19.5 14.9 69 3.5 ESE 15 22 8 12 1020.4 1020.3 0.4
21/04:00pm 21.6 20.4 15.0 66 3.9 SE 15 20 8 11 1020.2 1020.1 0.4
21/03:30pm 22.1 20.4 14.7 63 4.4 ESE 17 28 9 15 1020.0 1019.9 0.4
21/03:00pm 22.8 22.2 15.6 64 4.3 ESE 13 20 7 11 1020.0 1019.9 0.4
21/02:30pm 22.9 22.5 16.2 66 4.1 ESE 13 22 7 12 1020.0 1019.9 0.4
21/02:00pm 22.2 21.3 15.8 67 3.8 ESE 15 24 8 13 1020.0 1019.9 0.4
21/01:30pm 21.9 21.6 16.4 71 3.3 SE 13 17 7 9 1020.3 1020.2 0.4
21/01:00pm 20.3 19.6 16.3 78 2.4 SE 15 20 8 11 1020.7 1020.6 0.4
21/12:30pm 19.9 18.4 16.3 80 2.2 SSE 19 24 10 13 1021.0 1020.9 0.4
21/12:00pm 19.0 16.8 16.0 83 1.8 S 22 33 12 18 1021.4 1021.3 0.4
21/11:30am 23.6 23.4 15.6 61 4.8 ESE 11 20 6 11 1021.4 1021.3 0.0
21/11:00am 22.8 22.2 16.6 68 3.8 SE 15 19 8 10 1022.1 1022.0 0.0
21/10:30am 22.0 22.3 16.1 69 3.6 SSE 9 13 5 7 1022.3 1022.2 0.0
21/10:00am 21.4 20.0 15.5 69 3.5 SSE 17 24 9 13 1022.6 1022.4 0.0
21/09:30am 20.9 20.4 15.9 73 3.0 SE 13 19 7 10 1022.7 1022.5 0.0
21/09:00am 20.5 20.1 16.3 77 2.5 SSW 13 17 7 9 1022.8 1022.6 0.0
21/08:30am 20.0 19.6 16.2 79 2.3 SSW 13 17 7 9 1022.7 1022.5 0.0
21/08:00am 19.0 18.7 16.4 85 1.6 SSW 13 17 7 9 1022.3 1022.2 0.0
21/07:30am 17.0 19.2 16.5 97 0.3 CALM 0 0 0 0 1022.0 1021.9 0.0
21/07:00am 14.8 15.4 14.3 97 0.3 SSW 4 7 2 4 1021.6 1021.5 0.0
21/06:30am 14.5 14.1 14.0 97 0.3 SW 9 11 5 6 1021.3 1021.2 0.0
21/06:00am 14.6 15.5 14.1 97 0.3 ENE 2 7 1 4 1021.2 1021.1 0.0
21/05:30am 14.5 15.8 14.0 97 0.3 CALM 0 0 0 0 1021.0 1020.9 0.0
21/05:00am 14.4 15.6 13.9 97 0.3 CALM 0 6 0 3 1020.9 1020.8 0.0
21/04:30am 13.6 14.6 13.1 97 0.3 CALM 0 0 0 0 1020.6 1020.5 0.0
21/04:00am 13.3 14.2 12.8 97 0.3 CALM 0 0 0 0 1020.5 1020.4 0.0
21/03:30am 12.9 13.6 12.3 96 0.3 CALM 0 0 0 0 1020.3 1020.2 0.0
21/03:00am 13.5 14.4 12.9 96 0.3 CALM 0 0 0 0 1020.2 1020.1 0.0
21/02:30am 13.7 14.7 13.1 96 0.3 CALM 0 6 0 3 1020.3 1020.2 0.0
21/02:00am 13.8 14.8 13.2 96 0.3 CALM 0 7 0 4 1020.3 1020.2 0.0
21/01:30am 14.2 15.3 13.6 96 0.3 CALM 0 0 0 0 1020.4 1020.3 0.0
21/01:00am 14.2 15.3 13.6 96 0.3 CALM 0 0 0 0 1020.6 1020.5 0.0
21/12:30am 14.4 15.2 13.8 96 0.3 SSW 2 6 1 3 1020.6 1020.5 0.0
21/12:00am 14.6 14.7 14.0 96 0.3 SW 6 9 3 5 1020.6 1020.5 0.0
 
Date/Time
EST
Temp
°C
App
Temp
°C
Dew
Point
°C
Rel
Hum
%
Delta-T
°C
Wind Press
QNH
hPa
Press
MSL
hPa
Rain since
9am
mm
Dir  Spd
km/h
Gust
km/h
Spd
kts
Gust
kts
20/11:30pm 14.7 15.6 14.1 96 0.3 SW 2 7 1 4 1020.8 1020.7 0.0
20/11:00pm 14.3 14.6 13.5 95 0.4 SW 4 7 2 4 1020.8 1020.7 0.0
20/10:30pm 15.2 16.6 14.4 95 0.5 CALM 0 0 0 0 1021.0 1020.9 0.0
20/10:00pm 15.7 17.3 14.9 95 0.5 CALM 0 0 0 0 1021.1 1021.0 0.0
20/09:30pm 16.2 18.0 15.4 95 0.5 CALM 0 0 0 0 1020.8 1020.7 0.0
20/09:00pm 16.1 17.8 15.1 94 0.6 CALM 0 0 0 0 1020.6 1020.5 0.0
20/08:30pm 16.8 18.7 15.7 93 0.6 CALM 0 6 0 3 1020.4 1020.3 0.0
20/08:00pm 17.6 18.5 16.6 94 0.6 S 7 7 4 4 1020.3 1020.2 0.0
20/07:30pm 17.9 18.9 16.4 91 0.9 SSE 6 7 3 4 1020.0 1019.9 0.0
20/07:00pm 18.4 19.4 16.4 88 1.2 SE 6 7 3 4 1019.8 1019.7 0.0
20/06:30pm 18.8 19.2 16.2 85 1.6 S 9 11 5 6 1019.5 1019.4 0.0
20/06:00pm 20.2 20.6 16.4 79 2.3 ESE 9 13 5 7 1019.1 1019.0 0.0
20/05:30pm 21.0 20.8 16.6 76 2.7 E 13 17 7 9 1018.7 1018.6 0.0
20/05:00pm 22.0 21.3 16.5 71 3.3 ESE 15 19 8 10 1018.3 1018.2 0.0
20/04:30pm 23.2 22.2 16.5 66 4.1 E 17 24 9 13 1017.9 1017.8 0.0
20/04:00pm 24.1 22.6 15.3 58 5.3 ESE 17 20 9 11 1017.7 1017.6 0.0
20/03:30pm 24.5 23.3 15.1 55 5.6 ESE 15 20 8 11 1017.8 1017.7 0.0
20/03:00pm 24.9 23.3 15.0 54 5.9 E 17 24 9 13 1017.8 1017.7 0.0
20/02:30pm 24.9 23.8 15.2 54 5.8 ESE 15 22 8 12 1017.8 1017.7 0.0
20/02:00pm 24.8 23.6 15.1 54 5.8 SE 15 20 8 11 1017.9 1017.8 0.0
20/01:30pm 24.8 24.3 14.9 54 5.9 ESE 11 17 6 9 1018.0 1017.9 0.0
20/01:00pm 24.1 23.8 14.5 55 5.7 ESE 9 17 5 9 1018.2 1018.1 0.0
20/12:30pm 24.3 24.1 15.8 59 5.2 E 11 17 6 9 1018.5 1018.4 0.0
20/12:00pm 24.0 24.9 15.0 57 5.4 SE 4 11 2 6 1019.1 1019.0 0.0
20/11:30am 23.0 22.8 14.8 60 4.9 ESE 9 15 5 8 1019.6 1019.5 0.0
20/11:00am 22.6 23.5 15.0 62 4.5 ESE 4 11 2 6 1019.8 1019.7 0.0
20/10:30am 21.7 22.6 15.1 66 3.9 SE 4 11 2 6 1020.0 1019.9 0.0
20/10:00am 20.6 20.7 15.4 72 3.1 S 9 17 5 9 1020.3 1020.2 0.0

Other Formats:

Comma delimited format used in spreadsheet applications
http://www.bom.gov.au/fwo/IDN60801/IDN60801.95771.axf

JavaScript Object Notation format (JSON) in row-major order
http://www.bom.gov.au/fwo/IDN60801/IDN60801.95771.json